createdAt,value
2022-10-05T00:02:19.440Z,9.90
2022-10-05T00:04:47.003Z,9.90
2022-10-05T00:07:16.030Z,9.80
2022-10-05T00:09:44.625Z,9.90
2022-10-05T00:12:14.643Z,9.90
2022-10-05T00:14:41.764Z,9.90
2022-10-05T00:17:14.724Z,9.90
2022-10-05T00:19:43.466Z,9.80
2022-10-05T00:22:14.056Z,9.70
2022-10-05T00:24:40.825Z,9.80
2022-10-05T00:27:16.640Z,9.70
2022-10-05T00:29:43.566Z,9.60
2022-10-05T00:32:10.392Z,9.60
2022-10-05T00:34:37.719Z,9.60
2022-10-05T00:37:06.608Z,9.60
2022-10-05T00:39:36.064Z,9.70
2022-10-05T00:42:31.204Z,9.70
2022-10-05T00:45:04.206Z,9.70
2022-10-05T00:47:40.355Z,9.70
2022-10-05T00:50:33.222Z,9.60
2022-10-05T00:53:10.802Z,9.50
2022-10-05T00:55:51.566Z,9.60
2022-10-05T00:58:28.007Z,9.40
2022-10-05T01:01:04.925Z,9.40
2022-10-05T01:03:39.658Z,9.60
2022-10-05T01:06:16.254Z,9.60
2022-10-05T01:08:54.032Z,9.60
2022-10-05T01:11:25.518Z,9.60
2022-10-05T01:14:03.255Z,9.60
2022-10-05T01:16:35.599Z,9.50
2022-10-05T01:19:12.444Z,9.50
2022-10-05T01:21:45.994Z,9.50
2022-10-05T01:24:36.007Z,9.60
2022-10-05T01:27:37.343Z,9.50
2022-10-05T01:30:09.195Z,9.50
2022-10-05T01:32:44.244Z,9.50
2022-10-05T01:35:26.149Z,9.50
2022-10-05T01:38:02.228Z,9.40
2022-10-05T01:40:36.425Z,9.40
2022-10-05T01:43:08.145Z,9.50
2022-10-05T01:45:43.747Z,9.50
2022-10-05T01:48:18.534Z,9.40
2022-10-05T01:50:55.092Z,9.40
2022-10-05T01:53:32.999Z,9.30
2022-10-05T01:56:10.223Z,9.40
2022-10-05T01:58:44.390Z,9.40
2022-10-05T02:01:14.785Z,9.40
2022-10-05T02:03:47.172Z,9.40
2022-10-05T02:06:18.367Z,9.50
2022-10-05T02:08:52.410Z,9.50
2022-10-05T02:11:19.539Z,9.40
2022-10-05T02:13:51.637Z,9.40
2022-10-05T02:16:23.318Z,9.50
2022-10-05T02:18:52.624Z,9.50
2022-10-05T02:21:21.015Z,9.50
2022-10-05T02:23:51.182Z,9.50
2022-10-05T02:26:19.401Z,9.50
2022-10-05T02:28:52.341Z,9.40
2022-10-05T02:31:22.908Z,9.40
2022-10-05T02:33:49.727Z,9.20
2022-10-05T02:36:19.561Z,9.10
2022-10-05T02:38:58.489Z,9.10
2022-10-05T02:41:38.619Z,9.00
2022-10-05T02:44:18.558Z,9.30
2022-10-05T02:46:54.636Z,9.40
2022-10-05T02:49:29.238Z,9.40
2022-10-05T02:52:02.386Z,9.40
2022-10-05T02:54:41.906Z,9.30
2022-10-05T02:57:18.629Z,9.30
2022-10-05T02:59:56.514Z,9.30
2022-10-05T03:02:29.647Z,9.20
2022-10-05T03:05:05.816Z,9.20
2022-10-05T03:07:39.202Z,9.30
2022-10-05T03:10:11.796Z,9.30
2022-10-05T03:12:51.472Z,9.30
2022-10-05T03:15:43.565Z,9.30
2022-10-05T03:18:17.565Z,9.20
2022-10-05T03:20:53.606Z,9.20
2022-10-05T03:23:30.665Z,9.20
2022-10-05T03:26:15.550Z,9.20
2022-10-05T03:28:53.759Z,9.20
2022-10-05T03:31:31.141Z,9.10
2022-10-05T03:34:05.967Z,9.10
2022-10-05T03:36:42.367Z,9.00
2022-10-05T03:39:13.941Z,8.90
2022-10-05T03:41:46.007Z,8.70
2022-10-05T03:44:32.494Z,8.90
2022-10-05T03:47:07.800Z,9.00
2022-10-05T03:49:47.840Z,9.00
2022-10-05T03:52:18.720Z,9.00
2022-10-05T03:54:48.805Z,9.00
2022-10-05T03:57:19.196Z,9.00
2022-10-05T03:59:56.384Z,9.00
2022-10-05T04:02:28.020Z,8.90
2022-10-05T04:04:59.015Z,9.00
2022-10-05T04:07:35.286Z,9.00
2022-10-05T04:10:05.531Z,8.90
2022-10-05T04:12:36.957Z,8.90
2022-10-05T04:15:14.112Z,8.80
2022-10-05T04:17:47.709Z,8.90
2022-10-05T04:20:18.762Z,8.90
2022-10-05T04:22:53.693Z,8.90
2022-10-05T04:25:24.759Z,8.70
2022-10-05T04:27:58.071Z,8.80
2022-10-05T04:30:25.014Z,8.80
2022-10-05T04:32:55.628Z,8.80
2022-10-05T04:35:37.300Z,8.70
2022-10-05T04:38:15.269Z,8.70
2022-10-05T04:41:02.568Z,8.70
2022-10-05T04:43:39.750Z,8.60
2022-10-05T04:46:32.517Z,8.60
2022-10-05T04:49:24.448Z,8.60
2022-10-05T04:51:56.966Z,8.60
2022-10-05T04:54:37.466Z,8.70
2022-10-05T04:57:07.678Z,8.70
2022-10-05T05:00:01.868Z,8.70
2022-10-05T05:02:39.262Z,8.70
2022-10-05T05:05:30.029Z,8.60
2022-10-05T05:08:10.339Z,8.60
2022-10-05T05:11:04.441Z,8.70
2022-10-05T05:14:12.726Z,8.60
2022-10-05T05:16:41.626Z,8.60
2022-10-05T05:19:44.283Z,8.60
2022-10-05T05:22:20.416Z,8.60
2022-10-05T05:25:02.499Z,8.60
2022-10-05T05:27:39.848Z,8.60
2022-10-05T05:30:17.613Z,8.60
2022-10-05T05:32:53.444Z,8.50
2022-10-05T05:36:14.009Z,8.30
2022-10-05T05:38:50.427Z,8.10
2022-10-05T05:41:23.574Z,8.30
2022-10-05T05:44:01.235Z,8.40
2022-10-05T05:47:02.535Z,8.20
2022-10-05T05:49:27.607Z,8.10
2022-10-05T05:51:58.079Z,8.20
2022-10-05T05:54:36.615Z,8.40
2022-10-05T05:57:08.615Z,8.50
2022-10-05T05:59:48.904Z,8.50
2022-10-05T06:02:19.877Z,8.50
2022-10-05T06:04:51.600Z,8.50
2022-10-05T06:07:29.472Z,8.50
2022-10-05T06:10:05.393Z,8.60
2022-10-05T06:12:35.957Z,8.50
2022-10-05T06:15:13.641Z,8.60
2022-10-05T06:17:45.414Z,8.60
2022-10-05T06:20:22.033Z,8.60
2022-10-05T06:22:51.441Z,8.70
2022-10-05T06:25:31.291Z,8.60
2022-10-05T06:28:02.509Z,8.50
2022-10-05T06:30:38.818Z,8.50
2022-10-05T06:33:16.597Z,8.50
2022-10-05T06:35:57.582Z,8.40
2022-10-05T06:38:54.383Z,8.40
2022-10-05T06:41:32.301Z,8.50
2022-10-05T06:44:05.875Z,8.50
2022-10-05T06:46:39.666Z,8.50
2022-10-05T06:49:18.418Z,8.60
2022-10-05T06:51:52.701Z,8.60
2022-10-05T06:54:41.146Z,8.70
2022-10-05T06:57:15.911Z,8.70
2022-10-05T06:59:49.770Z,8.70
2022-10-05T07:02:24.364Z,8.80
2022-10-05T07:05:23.910Z,8.90
2022-10-05T07:07:57.622Z,8.90
2022-10-05T07:10:32.175Z,9.00
2022-10-05T07:13:10.085Z,9.10
2022-10-05T07:15:58.457Z,9.30
2022-10-05T07:18:39.620Z,9.30
2022-10-05T07:21:15.171Z,9.30
2022-10-05T07:23:50.839Z,9.40
2022-10-05T07:26:23.477Z,9.40
2022-10-05T07:29:08.761Z,9.40
2022-10-05T07:31:43.859Z,9.50
2022-10-05T07:34:21.655Z,9.50
2022-10-05T07:36:55.467Z,9.50
2022-10-05T07:39:55.424Z,9.50
2022-10-05T07:42:31.253Z,9.60
2022-10-05T07:45:08.174Z,9.60
2022-10-05T07:47:39.012Z,9.60
2022-10-05T07:50:13.903Z,9.70
2022-10-05T07:52:47.599Z,9.70
2022-10-05T07:55:19.791Z,9.70
2022-10-05T07:57:56.243Z,9.70
2022-10-05T08:00:29.828Z,9.80
2022-10-05T08:03:02.642Z,9.80
2022-10-05T08:05:31.842Z,9.80
2022-10-05T08:08:10.278Z,9.80
2022-10-05T08:10:42.524Z,9.80
2022-10-05T08:13:16.235Z,9.80
2022-10-05T08:15:46.454Z,9.80
2022-10-05T08:18:19.131Z,9.90
2022-10-05T08:20:48.113Z,9.90
2022-10-05T08:23:22.913Z,10.00
2022-10-05T08:26:10.398Z,10.00
2022-10-05T08:28:39.605Z,10.00
2022-10-05T08:31:17.599Z,10.10
2022-10-05T08:33:52.987Z,10.10
2022-10-05T08:36:27.104Z,10.10
2022-10-05T08:38:54.696Z,10.20
2022-10-05T08:41:54.679Z,10.20
2022-10-05T08:44:56.395Z,10.20
2022-10-05T08:47:47.690Z,10.30
2022-10-05T08:50:34.918Z,10.30
2022-10-05T08:53:19.322Z,10.30
2022-10-05T08:56:02.874Z,10.30
2022-10-05T08:58:49.935Z,10.40
2022-10-05T09:01:26.485Z,10.40
2022-10-05T09:04:20.211Z,10.40
2022-10-05T09:07:08.843Z,10.40
2022-10-05T09:10:06.385Z,10.50
2022-10-05T09:12:56.123Z,10.50
2022-10-05T09:15:54.751Z,10.60
2022-10-05T09:18:53.624Z,10.60
2022-10-05T09:21:35.927Z,10.60
2022-10-05T09:24:23.970Z,10.70
2022-10-05T09:27:03.611Z,10.70
2022-10-05T09:30:12.743Z,10.80
2022-10-05T09:33:27.842Z,10.80
2022-10-05T09:36:19.390Z,10.90
2022-10-05T09:39:15.169Z,10.90
2022-10-05T09:42:10.077Z,11.00
2022-10-05T09:45:09.376Z,11.00
2022-10-05T09:47:57.622Z,11.00
2022-10-05T09:50:59.027Z,11.10
2022-10-05T09:54:02.394Z,11.10
2022-10-05T09:57:02.028Z,11.20
2022-10-05T09:59:47.318Z,11.20
2022-10-05T10:02:40.933Z,11.20
2022-10-05T10:05:24.452Z,11.30
2022-10-05T10:08:20.829Z,11.30
2022-10-05T10:11:17.788Z,11.40
2022-10-05T10:14:36.401Z,11.30
2022-10-05T10:17:22.367Z,11.40
2022-10-05T10:20:22.836Z,11.50
2022-10-05T10:23:27.763Z,11.50
2022-10-05T10:26:30.395Z,11.50
2022-10-05T10:32:09.091Z,11.60
2022-10-05T10:35:07.340Z,11.70
2022-10-05T10:37:55.296Z,11.70
2022-10-05T10:40:36.785Z,11.70
2022-10-05T10:43:39.507Z,11.80
2022-10-05T10:46:18.869Z,11.80
2022-10-05T10:49:01.061Z,11.80
2022-10-05T10:51:57.046Z,11.90
2022-10-05T10:54:58.166Z,11.90
2022-10-05T10:57:33.704Z,11.90
2022-10-05T11:00:23.777Z,12.00
2022-10-05T11:03:21.950Z,12.00
2022-10-05T11:06:19.259Z,12.10
2022-10-05T11:09:13.745Z,12.10
2022-10-05T11:12:13.894Z,12.10
2022-10-05T11:14:55.639Z,12.10
2022-10-05T11:17:30.846Z,12.20
2022-10-05T11:20:33.202Z,12.20
2022-10-05T11:23:24.294Z,12.30
2022-10-05T11:26:04.500Z,12.30
2022-10-05T11:29:14.001Z,12.30
2022-10-05T11:32:20.741Z,12.30
2022-10-05T11:35:25.309Z,12.40
2022-10-05T11:38:15.777Z,12.40
2022-10-05T11:41:10.213Z,12.40
2022-10-05T11:44:06.198Z,12.50
2022-10-05T11:46:42.773Z,12.50
2022-10-05T11:49:22.264Z,12.50
2022-10-05T11:51:59.022Z,12.60
2022-10-05T11:55:11.059Z,12.60
2022-10-05T11:57:43.419Z,12.60
2022-10-05T12:00:16.799Z,12.60
2022-10-05T12:03:25.332Z,12.70
2022-10-05T12:06:13.159Z,12.70
2022-10-05T12:08:50.435Z,12.70
2022-10-05T12:11:49.412Z,12.70
2022-10-05T12:14:24.377Z,12.80
2022-10-05T12:16:57.323Z,12.80
2022-10-05T12:19:28.707Z,12.80
2022-10-05T12:22:01.161Z,12.80
2022-10-05T12:24:44.067Z,12.80
2022-10-05T12:27:18.004Z,12.80
2022-10-05T12:29:52.569Z,12.90
2022-10-05T12:32:23.830Z,12.90
2022-10-05T12:35:01.902Z,12.90
2022-10-05T12:37:41.321Z,12.90
2022-10-05T12:40:23.127Z,13.00
2022-10-05T12:43:00.749Z,13.00
2022-10-05T12:45:39.501Z,13.00
2022-10-05T12:48:39.503Z,13.00
2022-10-05T12:51:14.963Z,13.10
2022-10-05T12:53:51.799Z,13.10
2022-10-05T12:56:29.092Z,13.10
2022-10-05T12:59:02.924Z,13.10
2022-10-05T13:01:38.787Z,13.10
2022-10-05T13:04:19.055Z,13.20
2022-10-05T13:07:03.465Z,13.20
2022-10-05T13:09:38.645Z,13.20
2022-10-05T13:12:15.883Z,13.30
2022-10-05T13:14:55.115Z,13.30
2022-10-05T13:17:30.748Z,13.30
2022-10-05T13:19:58.954Z,13.30
2022-10-05T13:22:32.420Z,13.40
2022-10-05T13:25:26.816Z,13.40
2022-10-05T13:28:13.757Z,13.40
2022-10-05T13:30:51.264Z,13.40
2022-10-05T13:33:27.313Z,13.40
2022-10-05T13:36:04.177Z,13.50
2022-10-05T13:38:46.482Z,13.50
2022-10-05T13:41:21.811Z,13.50
2022-10-05T13:43:59.688Z,13.50
2022-10-05T13:46:36.682Z,13.60
2022-10-05T13:49:16.336Z,13.60
2022-10-05T13:51:48.726Z,13.60
2022-10-05T13:54:22.991Z,13.60
2022-10-05T13:56:56.443Z,13.60
2022-10-05T13:59:32.470Z,13.70
2022-10-05T14:02:05.424Z,13.60
2022-10-05T14:04:44.454Z,13.70
2022-10-05T14:07:23.695Z,13.70
2022-10-05T14:09:50.735Z,13.70
2022-10-05T14:12:21.718Z,13.80
2022-10-05T14:14:50.832Z,13.80
2022-10-05T14:17:37.008Z,13.80
2022-10-05T14:20:19.015Z,13.80
2022-10-05T14:22:50.729Z,13.80
2022-10-05T14:25:17.900Z,13.90
2022-10-05T14:28:01.607Z,13.90
2022-10-05T14:30:29.738Z,13.90
2022-10-05T14:33:10.489Z,13.90
2022-10-05T14:35:47.330Z,13.90
2022-10-05T14:38:19.255Z,14.00
2022-10-05T14:41:01.809Z,14.00
2022-10-05T14:43:29.384Z,14.00
2022-10-05T14:45:57.924Z,14.00
2022-10-05T14:48:28.073Z,14.10
2022-10-05T14:50:57.174Z,14.00
2022-10-05T14:53:25.189Z,14.10
2022-10-05T14:56:18.318Z,14.10
2022-10-05T14:59:12.768Z,14.10
2022-10-05T15:01:44.985Z,14.10
2022-10-05T15:04:28.163Z,14.10
2022-10-05T15:07:05.329Z,14.20
2022-10-05T15:09:48.699Z,14.20
2022-10-05T15:12:23.009Z,14.20
2022-10-05T15:15:02.869Z,14.20
2022-10-05T15:17:36.277Z,14.20
2022-10-05T15:20:16.309Z,14.20
2022-10-05T15:22:49.867Z,14.20
2022-10-05T15:25:22.637Z,14.30
2022-10-05T15:28:11.829Z,14.30
2022-10-05T15:30:47.054Z,14.30
2022-10-05T15:33:17.700Z,14.30
2022-10-05T15:35:59.598Z,14.30
2022-10-05T15:38:32.082Z,14.30
2022-10-05T15:41:08.144Z,14.40
2022-10-05T15:43:50.789Z,14.40
2022-10-05T15:46:24.100Z,14.40
2022-10-05T15:49:02.832Z,14.40
2022-10-05T15:51:43.828Z,14.40
2022-10-05T15:54:20.839Z,14.40
2022-10-05T15:56:52.323Z,14.40
2022-10-05T15:59:27.619Z,14.40
2022-10-05T16:01:58.337Z,14.40
2022-10-05T16:04:35.858Z,14.50
2022-10-05T16:07:10.051Z,14.40
2022-10-05T16:09:43.627Z,14.40
2022-10-05T16:12:18.750Z,14.50
2022-10-05T16:14:54.995Z,14.50
2022-10-05T16:17:35.063Z,14.50
2022-10-05T16:20:19.007Z,14.50
2022-10-05T16:22:55.838Z,14.50
2022-10-05T16:25:28.984Z,14.50
2022-10-05T16:28:08.732Z,14.50
2022-10-05T16:30:47.346Z,14.50
2022-10-05T16:33:18.701Z,14.50
2022-10-05T16:35:53.232Z,14.50
2022-10-05T16:38:27.631Z,14.50
2022-10-05T16:41:02.387Z,14.50
2022-10-05T16:43:39.914Z,14.50
2022-10-05T16:46:14.715Z,14.50
2022-10-05T16:48:52.242Z,14.50
2022-10-05T16:51:32.765Z,14.50
2022-10-05T16:54:15.441Z,14.50
2022-10-05T16:56:48.039Z,14.50
2022-10-05T16:59:53.370Z,14.50
2022-10-05T17:02:32.546Z,14.50
2022-10-05T17:05:11.987Z,14.50
2022-10-05T17:08:01.266Z,14.50
2022-10-05T17:10:52.143Z,14.50
2022-10-05T17:13:46.649Z,14.50
2022-10-05T17:16:23.327Z,14.50
2022-10-05T17:19:22.491Z,14.50
2022-10-05T17:21:57.295Z,14.50
2022-10-05T17:24:31.853Z,14.50
2022-10-05T17:27:17.114Z,14.50
2022-10-05T17:29:47.318Z,14.50
2022-10-05T17:32:33.838Z,14.50
2022-10-05T17:35:18.815Z,14.50
2022-10-05T17:38:08.624Z,14.50
2022-10-05T17:40:37.026Z,14.50
2022-10-05T17:43:23.986Z,14.50
2022-10-05T17:45:54.204Z,14.50
2022-10-05T17:48:58.925Z,14.50
2022-10-05T17:51:57.874Z,14.50
2022-10-05T17:54:28.575Z,14.50
2022-10-05T17:57:19.543Z,14.50
2022-10-05T17:59:57.237Z,14.50
2022-10-05T18:02:39.373Z,14.50
2022-10-05T18:05:20.565Z,14.50
2022-10-05T18:08:08.065Z,14.50
2022-10-05T18:10:41.126Z,14.40
2022-10-05T18:13:32.763Z,14.40
2022-10-05T18:15:59.732Z,14.40
2022-10-05T18:18:55.938Z,14.40
2022-10-05T18:21:31.020Z,14.40
2022-10-05T18:24:17.144Z,14.40
2022-10-05T18:26:54.865Z,14.40
2022-10-05T18:29:35.790Z,14.40
2022-10-05T18:32:12.284Z,14.30
2022-10-05T18:34:47.530Z,14.40
2022-10-05T18:37:28.322Z,14.30
2022-10-05T18:40:08.976Z,14.30
2022-10-05T18:42:43.682Z,14.20
2022-10-05T18:45:22.664Z,14.20
2022-10-05T18:48:00.825Z,14.30
2022-10-05T18:50:33.721Z,14.20
2022-10-05T18:53:16.345Z,14.20
2022-10-05T18:55:47.607Z,14.20
2022-10-05T18:58:21.057Z,14.20
2022-10-05T19:01:13.446Z,14.10
2022-10-05T19:03:51.395Z,14.10
2022-10-05T19:06:23.995Z,14.10
2022-10-05T19:08:58.169Z,14.10
2022-10-05T19:11:28.918Z,14.10
2022-10-05T19:14:04.562Z,14.10
2022-10-05T19:16:50.195Z,14.10
2022-10-05T19:19:33.750Z,14.10
2022-10-05T19:22:07.704Z,14.10
2022-10-05T19:24:50.417Z,14.10
2022-10-05T19:27:26.791Z,14.10
2022-10-05T19:30:17.497Z,14.10
2022-10-05T19:32:58.495Z,14.10
2022-10-05T19:35:32.579Z,14.10
2022-10-05T19:40:53.720Z,14.10
2022-10-05T19:43:38.319Z,14.00
2022-10-05T19:46:17.790Z,14.10
2022-10-05T19:48:48.693Z,14.00
2022-10-05T19:51:25.605Z,14.00
2022-10-05T19:53:52.995Z,14.00
2022-10-05T19:56:21.990Z,14.00
2022-10-05T19:58:49.995Z,13.90
2022-10-05T20:01:25.328Z,13.90
2022-10-05T20:03:53.179Z,13.90
2022-10-05T20:06:21.066Z,13.90
2022-10-05T20:08:49.890Z,13.90
2022-10-05T20:11:18.503Z,13.90
2022-10-05T20:13:47.265Z,13.90
2022-10-05T20:16:28.661Z,13.90
2022-10-05T20:18:55.530Z,13.90
2022-10-05T20:21:39.413Z,13.80
2022-10-05T20:24:07.320Z,13.80
2022-10-05T20:26:38.103Z,13.80
2022-10-05T20:29:08.734Z,13.80
2022-10-05T20:31:36.839Z,13.80
2022-10-05T20:34:03.629Z,13.80
2022-10-05T20:36:30.379Z,13.70
2022-10-05T20:38:57.156Z,13.70
2022-10-05T20:41:23.917Z,13.80
2022-10-05T20:43:50.659Z,13.80
2022-10-05T20:46:17.458Z,13.80
2022-10-05T20:48:45.763Z,13.70
2022-10-05T20:51:12.487Z,13.70
2022-10-05T20:53:39.235Z,13.70
2022-10-05T20:56:05.995Z,13.60
2022-10-05T20:58:32.715Z,13.60
2022-10-05T21:00:59.504Z,13.60
2022-10-05T21:03:26.311Z,13.60
2022-10-05T21:05:54.361Z,13.60
2022-10-05T21:08:21.125Z,13.60
2022-10-05T21:10:47.809Z,13.60
2022-10-05T21:13:14.516Z,13.50
2022-10-05T21:15:41.260Z,13.50
2022-10-05T21:18:07.965Z,13.50
2022-10-05T21:20:34.671Z,13.50
2022-10-05T21:23:02.767Z,13.50
2022-10-05T21:25:29.498Z,13.40
2022-10-05T21:27:56.298Z,13.40
2022-10-05T21:30:23.059Z,13.50
2022-10-05T21:32:49.832Z,13.40
2022-10-05T21:35:16.666Z,13.40
2022-10-05T21:37:43.382Z,13.40
2022-10-05T21:40:11.768Z,13.40
2022-10-05T21:42:38.583Z,13.40
2022-10-05T21:45:06.511Z,13.40
2022-10-05T21:47:33.320Z,13.40
2022-10-05T21:50:01.179Z,13.40
2022-10-05T21:52:27.922Z,13.40
2022-10-05T21:54:54.729Z,13.40
2022-10-05T21:57:22.903Z,13.40
2022-10-05T21:59:49.684Z,13.30
2022-10-05T22:02:16.548Z,13.30
2022-10-05T22:04:43.264Z,13.30
2022-10-05T22:07:14.974Z,13.30
2022-10-05T22:09:41.684Z,13.30
2022-10-05T22:12:08.413Z,13.30
2022-10-05T22:14:37.699Z,13.30
2022-10-05T22:17:04.566Z,13.30
2022-10-05T22:19:31.355Z,13.20
2022-10-05T22:21:58.125Z,13.20
2022-10-05T22:24:24.837Z,13.10
2022-10-05T22:26:51.688Z,13.20
2022-10-05T22:29:18.795Z,13.20
2022-10-05T22:31:47.704Z,13.20
2022-10-05T22:34:14.673Z,13.20
2022-10-05T22:36:41.414Z,13.20
2022-10-05T22:39:08.220Z,13.20
2022-10-05T22:41:34.941Z,13.20
2022-10-05T22:44:01.659Z,13.20
2022-10-05T22:46:28.649Z,13.20
2022-10-05T22:48:56.810Z,13.10
2022-10-05T22:51:23.621Z,13.10
2022-10-05T22:53:50.409Z,13.10
2022-10-05T22:56:17.286Z,13.10
2022-10-05T22:58:45.222Z,13.10
2022-10-05T23:01:14.564Z,13.10
2022-10-05T23:03:42.147Z,13.10
2022-10-05T23:06:11.942Z,13.10
2022-10-05T23:08:39.187Z,13.10
2022-10-05T23:11:07.358Z,13.00
2022-10-05T23:13:34.112Z,13.10
2022-10-05T23:16:06.350Z,13.10
2022-10-05T23:18:33.191Z,13.10
2022-10-05T23:20:59.942Z,13.10
2022-10-05T23:23:28.101Z,13.00
2022-10-05T23:25:59.599Z,13.10
2022-10-05T23:28:27.184Z,13.10
2022-10-05T23:30:58.180Z,13.00
2022-10-05T23:33:25.134Z,13.10
2022-10-05T23:35:58.231Z,13.00
2022-10-05T23:38:25.805Z,13.00
2022-10-05T23:40:54.308Z,13.00
2022-10-05T23:43:21.026Z,13.00
2022-10-05T23:45:48.176Z,13.00
2022-10-05T23:48:15.081Z,13.00
2022-10-05T23:50:45.435Z,13.00
2022-10-05T23:53:12.881Z,13.00
2022-10-05T23:55:39.642Z,13.00
2022-10-05T23:58:08.174Z,13.00
